Terminal Aerodrome Forecast
Issued by NWS Twin Cities, MN

Home | Current Version | Previous Version | Text Only | Print | Product List | Glossary Off
Versions: 1 2 3 4 5 6 7 8 9 10 11 12 13 14 15

000
FTUS43 KMPX 241407 AAA
TAFSTC
TAF AMD
KSTC 241407Z 2414/2512 32017G26KT P6SM BKN045 OVC070
     FM241600 33018G28KT P6SM SCT030
     FM250000 31012KT P6SM FEW030 BKN150
     FM250500 01003KT P6SM OVC100=

USA.gov is the U.S. government's official web portal to all federal, state and local government web resources and services.